sensor_id;sensor_type;location;lat;lon;timestamp;P1;durP1;ratioP1;P2;durP2;ratioP2
6651;SDS011;3362;50.892;10.692;2022-08-20T00:01:05;6.43;;;1.98;;
6651;SDS011;3362;50.892;10.692;2022-08-20T00:03:34;5.70;;;1.92;;
6651;SDS011;3362;50.892;10.692;2022-08-20T00:06:01;2.78;;;1.95;;
6651;SDS011;3362;50.892;10.692;2022-08-20T00:08:28;2.15;;;1.95;;
6651;SDS011;3362;50.892;10.692;2022-08-20T00:10:55;4.47;;;2.47;;
6651;SDS011;3362;50.892;10.692;2022-08-20T00:13:23;3.50;;;1.88;;
6651;SDS011;3362;50.892;10.692;2022-08-20T00:15:49;2.95;;;1.73;;
6651;SDS011;3362;50.892;10.692;2022-08-20T00:18:17;2.53;;;1.83;;
6651;SDS011;3362;50.892;10.692;2022-08-20T00:20:45;4.43;;;2.30;;
6651;SDS011;3362;50.892;10.692;2022-08-20T00:23:12;4.75;;;2.10;;
6651;SDS011;3362;50.892;10.692;2022-08-20T00:25:38;4.60;;;2.17;;
6651;SDS011;3362;50.892;10.692;2022-08-20T00:28:05;4.70;;;2.38;;
6651;SDS011;3362;50.892;10.692;2022-08-20T00:30:32;3.45;;;2.30;;
6651;SDS011;3362;50.892;10.692;2022-08-20T00:33:01;4.50;;;2.00;;
6651;SDS011;3362;50.892;10.692;2022-08-20T00:35:30;3.15;;;2.25;;
6651;SDS011;3362;50.892;10.692;2022-08-20T00:37:56;5.97;;;2.58;;
6651;SDS011;3362;50.892;10.692;2022-08-20T00:40:23;4.93;;;2.22;;
6651;SDS011;3362;50.892;10.692;2022-08-20T00:42:51;3.90;;;2.35;;
6651;SDS011;3362;50.892;10.692;2022-08-20T00:45:18;3.45;;;2.40;;
6651;SDS011;3362;50.892;10.692;2022-08-20T00:47:45;4.00;;;2.00;;
6651;SDS011;3362;50.892;10.692;2022-08-20T00:50:12;5.07;;;3.33;;
6651;SDS011;3362;50.892;10.692;2022-08-20T00:52:42;5.28;;;2.05;;
6651;SDS011;3362;50.892;10.692;2022-08-20T00:55:09;4.97;;;2.90;;
6651;SDS011;3362;50.892;10.692;2022-08-20T00:57:39;4.65;;;2.30;;
6651;SDS011;3362;50.892;10.692;2022-08-20T01:00:08;7.03;;;2.80;;
6651;SDS011;3362;50.892;10.692;2022-08-20T01:02:36;8.13;;;2.17;;
6651;SDS011;3362;50.892;10.692;2022-08-20T01:05:03;4.20;;;2.47;;
6651;SDS011;3362;50.892;10.692;2022-08-20T01:07:30;7.93;;;2.38;;
6651;SDS011;3362;50.892;10.692;2022-08-20T01:09:58;4.55;;;1.73;;
6651;SDS011;3362;50.892;10.692;2022-08-20T01:12:26;3.38;;;2.42;;
6651;SDS011;3362;50.892;10.692;2022-08-20T01:14:52;3.30;;;1.95;;
6651;SDS011;3362;50.892;10.692;2022-08-20T01:17:20;6.60;;;2.55;;
6651;SDS011;3362;50.892;10.692;2022-08-20T01:19:48;4.50;;;2.08;;
6651;SDS011;3362;50.892;10.692;2022-08-20T01:22:18;3.08;;;2.17;;
6651;SDS011;3362;50.892;10.692;2022-08-20T01:25:07;3.33;;;2.10;;
6651;SDS011;3362;50.892;10.692;2022-08-20T01:27:36;3.92;;;2.38;;
6651;SDS011;3362;50.892;10.692;2022-08-20T01:30:03;3.80;;;2.15;;
6651;SDS011;3362;50.892;10.692;2022-08-20T01:32:30;4.45;;;2.35;;
6651;SDS011;3362;50.892;10.692;2022-08-20T01:34:56;4.20;;;1.95;;
6651;SDS011;3362;50.892;10.692;2022-08-20T01:37:22;4.00;;;2.22;;
6651;SDS011;3362;50.892;10.692;2022-08-20T01:39:48;2.53;;;1.70;;
6651;SDS011;3362;50.892;10.692;2022-08-20T01:42:16;3.53;;;2.20;;
6651;SDS011;3362;50.892;10.692;2022-08-20T01:44:46;4.97;;;2.17;;
6651;SDS011;3362;50.892;10.692;2022-08-20T01:47:14;2.97;;;2.45;;
6651;SDS011;3362;50.892;10.692;2022-08-20T01:49:43;2.55;;;1.98;;
6651;SDS011;3362;50.892;10.692;2022-08-20T01:52:10;2.97;;;1.88;;
6651;SDS011;3362;50.892;10.692;2022-08-20T01:54:38;5.82;;;2.72;;
6651;SDS011;3362;50.892;10.692;2022-08-20T01:57:05;13.40;;;2.85;;
6651;SDS011;3362;50.892;10.692;2022-08-20T01:59:35;9.93;;;2.33;;
6651;SDS011;3362;50.892;10.692;2022-08-20T02:02:02;5.45;;;2.28;;
6651;SDS011;3362;50.892;10.692;2022-08-20T02:04:29;6.38;;;2.08;;
6651;SDS011;3362;50.892;10.692;2022-08-20T02:06:57;4.78;;;2.35;;
6651;SDS011;3362;50.892;10.692;2022-08-20T02:09:24;5.93;;;2.40;;
6651;SDS011;3362;50.892;10.692;2022-08-20T02:11:51;4.93;;;2.10;;
6651;SDS011;3362;50.892;10.692;2022-08-20T02:14:17;5.53;;;2.95;;
6651;SDS011;3362;50.892;10.692;2022-08-20T02:16:44;8.07;;;2.38;;
6651;SDS011;3362;50.892;10.692;2022-08-20T02:19:13;3.90;;;2.72;;
6651;SDS011;3362;50.892;10.692;2022-08-20T02:21:46;4.80;;;2.17;;
6651;SDS011;3362;50.892;10.692;2022-08-20T02:24:14;6.25;;;2.05;;
6651;SDS011;3362;50.892;10.692;2022-08-20T02:26:40;4.75;;;2.03;;
6651;SDS011;3362;50.892;10.692;2022-08-20T02:29:08;5.90;;;2.53;;
6651;SDS011;3362;50.892;10.692;2022-08-20T02:31:35;5.78;;;2.50;;
6651;SDS011;3362;50.892;10.692;2022-08-20T02:34:02;4.80;;;2.67;;
6651;SDS011;3362;50.892;10.692;2022-08-20T02:36:30;2.53;;;1.92;;
6651;SDS011;3362;50.892;10.692;2022-08-20T02:38:57;9.20;;;2.20;;
6651;SDS011;3362;50.892;10.692;2022-08-20T02:41:24;3.58;;;1.67;;
6651;SDS011;3362;50.892;10.692;2022-08-20T02:43:50;3.95;;;2.10;;
6651;SDS011;3362;50.892;10.692;2022-08-20T02:46:16;5.80;;;2.50;;
6651;SDS011;3362;50.892;10.692;2022-08-20T02:48:43;6.40;;;2.03;;
6651;SDS011;3362;50.892;10.692;2022-08-20T02:51:10;5.50;;;2.15;;
6651;SDS011;3362;50.892;10.692;2022-08-20T02:53:38;12.05;;;2.38;;
6651;SDS011;3362;50.892;10.692;2022-08-20T02:56:06;6.03;;;2.45;;
6651;SDS011;3362;50.892;10.692;2022-08-20T02:58:32;2.70;;;2.35;;
6651;SDS011;3362;50.892;10.692;2022-08-20T03:00:59;3.00;;;1.95;;
6651;SDS011;3362;50.892;10.692;2022-08-20T03:03:25;3.60;;;2.47;;
6651;SDS011;3362;50.892;10.692;2022-08-20T03:05:52;3.22;;;2.08;;
6651;SDS011;3362;50.892;10.692;2022-08-20T03:08:19;3.97;;;2.30;;
6651;SDS011;3362;50.892;10.692;2022-08-20T03:10:47;2.95;;;2.35;;
6651;SDS011;3362;50.892;10.692;2022-08-20T03:13:14;4.63;;;1.73;;
6651;SDS011;3362;50.892;10.692;2022-08-20T03:15:41;3.28;;;2.13;;
6651;SDS011;3362;50.892;10.692;2022-08-20T03:18:08;1.92;;;1.80;;
6651;SDS011;3362;50.892;10.692;2022-08-20T03:20:34;3.95;;;2.30;;
6651;SDS011;3362;50.892;10.692;2022-08-20T03:23:00;2.78;;;2.30;;
6651;SDS011;3362;50.892;10.692;2022-08-20T03:25:27;7.75;;;1.95;;
6651;SDS011;3362;50.892;10.692;2022-08-20T03:27:55;3.25;;;1.80;;
6651;SDS011;3362;50.892;10.692;2022-08-20T03:30:21;2.25;;;1.70;;
6651;SDS011;3362;50.892;10.692;2022-08-20T03:32:48;3.50;;;2.13;;
6651;SDS011;3362;50.892;10.692;2022-08-20T03:35:15;2.20;;;2.00;;
6651;SDS011;3362;50.892;10.692;2022-08-20T03:37:42;5.60;;;2.00;;
6651;SDS011;3362;50.892;10.692;2022-08-20T03:40:09;4.88;;;1.85;;
6651;SDS011;3362;50.892;10.692;2022-08-20T03:42:36;5.18;;;1.63;;
6651;SDS011;3362;50.892;10.692;2022-08-20T03:45:06;6.90;;;2.15;;
6651;SDS011;3362;50.892;10.692;2022-08-20T03:47:32;3.28;;;2.45;;
6651;SDS011;3362;50.892;10.692;2022-08-20T03:49:59;3.03;;;1.80;;
6651;SDS011;3362;50.892;10.692;2022-08-20T03:52:25;7.85;;;2.45;;
6651;SDS011;3362;50.892;10.692;2022-08-20T03:54:53;2.72;;;2.00;;
6651;SDS011;3362;50.892;10.692;2022-08-20T03:57:19;3.20;;;1.65;;
6651;SDS011;3362;50.892;10.692;2022-08-20T03:59:45;6.15;;;2.28;;
6651;SDS011;3362;50.892;10.692;2022-08-20T04:02:13;4.78;;;2.00;;
6651;SDS011;3362;50.892;10.692;2022-08-20T04:04:39;4.45;;;1.98;;
6651;SDS011;3362;50.892;10.692;2022-08-20T04:07:09;2.92;;;1.90;;
6651;SDS011;3362;50.892;10.692;2022-08-20T04:09:36;4.10;;;2.00;;
6651;SDS011;3362;50.892;10.692;2022-08-20T04:12:03;5.72;;;1.80;;
6651;SDS011;3362;50.892;10.692;2022-08-20T04:14:30;2.10;;;1.70;;
6651;SDS011;3362;50.892;10.692;2022-08-20T04:16:56;3.13;;;2.25;;
6651;SDS011;3362;50.892;10.692;2022-08-20T04:19:23;4.30;;;2.05;;
6651;SDS011;3362;50.892;10.692;2022-08-20T04:21:50;2.72;;;2.38;;
6651;SDS011;3362;50.892;10.692;2022-08-20T04:24:16;3.22;;;2.50;;
6651;SDS011;3362;50.892;10.692;2022-08-20T04:26:42;4.93;;;2.58;;
6651;SDS011;3362;50.892;10.692;2022-08-20T04:29:08;4.18;;;2.40;;
6651;SDS011;3362;50.892;10.692;2022-08-20T04:31:35;8.25;;;2.13;;
6651;SDS011;3362;50.892;10.692;2022-08-20T04:34:01;6.70;;;2.33;;
6651;SDS011;3362;50.892;10.692;2022-08-20T04:36:29;5.50;;;2.40;;
6651;SDS011;3362;50.892;10.692;2022-08-20T04:38:56;2.10;;;1.90;;
6651;SDS011;3362;50.892;10.692;2022-08-20T04:41:22;5.85;;;2.22;;
6651;SDS011;3362;50.892;10.692;2022-08-20T04:43:47;2.83;;;2.03;;
6651;SDS011;3362;50.892;10.692;2022-08-20T04:46:14;4.57;;;2.08;;
6651;SDS011;3362;50.892;10.692;2022-08-20T04:48:40;3.05;;;2.20;;
6651;SDS011;3362;50.892;10.692;2022-08-20T04:51:07;2.65;;;2.28;;
6651;SDS011;3362;50.892;10.692;2022-08-20T04:53:34;6.20;;;2.53;;
6651;SDS011;3362;50.892;10.692;2022-08-20T04:56:01;3.17;;;2.38;;
6651;SDS011;3362;50.892;10.692;2022-08-20T04:58:29;6.90;;;2.45;;
6651;SDS011;3362;50.892;10.692;2022-08-20T05:00:56;4.70;;;2.35;;
6651;SDS011;3362;50.892;10.692;2022-08-20T05:03:24;5.70;;;2.80;;
6651;SDS011;3362;50.892;10.692;2022-08-20T05:05:50;5.35;;;2.63;;
6651;SDS011;3362;50.892;10.692;2022-08-20T05:08:17;3.22;;;2.38;;
6651;SDS011;3362;50.892;10.692;2022-08-20T05:10:45;3.10;;;2.58;;
6651;SDS011;3362;50.892;10.692;2022-08-20T05:13:12;3.53;;;2.13;;
6651;SDS011;3362;50.892;10.692;2022-08-20T05:15:38;4.78;;;2.38;;
6651;SDS011;3362;50.892;10.692;2022-08-20T05:18:05;4.35;;;3.10;;
6651;SDS011;3362;50.892;10.692;2022-08-20T05:20:33;3.50;;;2.78;;
6651;SDS011;3362;50.892;10.692;2022-08-20T05:23:03;3.78;;;2.90;;
6651;SDS011;3362;50.892;10.692;2022-08-20T05:25:30;5.95;;;2.95;;
6651;SDS011;3362;50.892;10.692;2022-08-20T05:27:58;3.92;;;2.85;;
6651;SDS011;3362;50.892;10.692;2022-08-20T05:30:25;3.47;;;3.17;;
6651;SDS011;3362;50.892;10.692;2022-08-20T05:32:51;4.03;;;3.17;;
6651;SDS011;3362;50.892;10.692;2022-08-20T05:35:18;4.03;;;3.38;;
6651;SDS011;3362;50.892;10.692;2022-08-20T05:37:44;6.40;;;3.70;;
6651;SDS011;3362;50.892;10.692;2022-08-20T05:40:11;5.40;;;3.63;;
6651;SDS011;3362;50.892;10.692;2022-08-20T05:42:38;4.60;;;3.50;;
6651;SDS011;3362;50.892;10.692;2022-08-20T05:45:06;4.15;;;3.40;;
6651;SDS011;3362;50.892;10.692;2022-08-20T05:47:33;3.97;;;3.45;;
6651;SDS011;3362;50.892;10.692;2022-08-20T05:49:59;8.70;;;3.63;;
6651;SDS011;3362;50.892;10.692;2022-08-20T05:52:28;5.30;;;3.15;;
6651;SDS011;3362;50.892;10.692;2022-08-20T05:54:55;6.65;;;3.63;;
6651;SDS011;3362;50.892;10.692;2022-08-20T05:57:21;6.80;;;3.55;;
6651;SDS011;3362;50.892;10.692;2022-08-20T05:59:47;4.47;;;3.15;;
6651;SDS011;3362;50.892;10.692;2022-08-20T06:02:15;4.05;;;3.53;;
6651;SDS011;3362;50.892;10.692;2022-08-20T06:04:59;4.25;;;2.97;;
6651;SDS011;3362;50.892;10.692;2022-08-20T06:07:25;5.88;;;3.55;;
6651;SDS011;3362;50.892;10.692;2022-08-20T06:09:51;5.15;;;3.38;;
6651;SDS011;3362;50.892;10.692;2022-08-20T06:12:17;4.82;;;3.55;;
6651;SDS011;3362;50.892;10.692;2022-08-20T06:14:44;5.05;;;3.28;;
6651;SDS011;3362;50.892;10.692;2022-08-20T06:17:13;9.30;;;3.42;;
6651;SDS011;3362;50.892;10.692;2022-08-20T06:19:41;4.88;;;3.40;;
6651;SDS011;3362;50.892;10.692;2022-08-20T06:22:07;6.35;;;3.80;;
6651;SDS011;3362;50.892;10.692;2022-08-20T06:24:34;6.20;;;3.42;;
6651;SDS011;3362;50.892;10.692;2022-08-20T06:27:01;4.13;;;3.47;;
6651;SDS011;3362;50.892;10.692;2022-08-20T06:29:27;8.43;;;3.92;;
6651;SDS011;3362;50.892;10.692;2022-08-20T06:31:54;6.05;;;4.15;;
6651;SDS011;3362;50.892;10.692;2022-08-20T06:34:21;6.32;;;3.85;;
6651;SDS011;3362;50.892;10.692;2022-08-20T06:36:53;6.18;;;4.38;;
6651;SDS011;3362;50.892;10.692;2022-08-20T06:39:19;6.63;;;3.90;;
6651;SDS011;3362;50.892;10.692;2022-08-20T06:41:46;5.78;;;4.35;;
6651;SDS011;3362;50.892;10.692;2022-08-20T06:44:12;8.05;;;4.43;;
6651;SDS011;3362;50.892;10.692;2022-08-20T06:46:38;17.63;;;5.55;;
6651;SDS011;3362;50.892;10.692;2022-08-20T06:49:05;7.18;;;4.28;;
6651;SDS011;3362;50.892;10.692;2022-08-20T06:51:32;5.32;;;4.30;;
6651;SDS011;3362;50.892;10.692;2022-08-20T06:54:00;5.15;;;3.83;;
6651;SDS011;3362;50.892;10.692;2022-08-20T06:56:26;6.90;;;4.57;;
6651;SDS011;3362;50.892;10.692;2022-08-20T06:58:52;10.18;;;6.43;;
6651;SDS011;3362;50.892;10.692;2022-08-20T07:01:18;8.95;;;5.22;;
6651;SDS011;3362;50.892;10.692;2022-08-20T07:03:45;13.88;;;7.65;;
6651;SDS011;3362;50.892;10.692;2022-08-20T07:06:11;14.93;;;9.10;;
6651;SDS011;3362;50.892;10.692;2022-08-20T07:08:37;13.10;;;8.88;;
6651;SDS011;3362;50.892;10.692;2022-08-20T07:11:05;15.52;;;9.15;;
6651;SDS011;3362;50.892;10.692;2022-08-20T07:13:31;16.83;;;9.80;;
6651;SDS011;3362;50.892;10.692;2022-08-20T07:16:00;14.00;;;8.82;;
6651;SDS011;3362;50.892;10.692;2022-08-20T07:18:26;14.38;;;9.20;;
6651;SDS011;3362;50.892;10.692;2022-08-20T07:20:52;15.48;;;9.23;;
6651;SDS011;3362;50.892;10.692;2022-08-20T07:23:21;17.20;;;9.50;;
6651;SDS011;3362;50.892;10.692;2022-08-20T07:25:47;15.43;;;9.10;;
6651;SDS011;3362;50.892;10.692;2022-08-20T07:28:15;13.00;;;9.07;;
6651;SDS011;3362;50.892;10.692;2022-08-20T07:30:42;17.15;;;9.77;;
6651;SDS011;3362;50.892;10.692;2022-08-20T07:33:27;15.02;;;9.45;;
6651;SDS011;3362;50.892;10.692;2022-08-20T07:35:54;17.90;;;10.52;;
6651;SDS011;3362;50.892;10.692;2022-08-20T07:38:22;19.20;;;10.63;;
6651;SDS011;3362;50.892;10.692;2022-08-20T07:40:49;26.75;;;10.50;;
6651;SDS011;3362;50.892;10.692;2022-08-20T07:43:17;17.30;;;11.52;;
6651;SDS011;3362;50.892;10.692;2022-08-20T07:45:43;18.50;;;11.32;;
6651;SDS011;3362;50.892;10.692;2022-08-20T07:48:10;17.13;;;9.93;;
6651;SDS011;3362;50.892;10.692;2022-08-20T07:50:37;18.55;;;10.55;;
6651;SDS011;3362;50.892;10.692;2022-08-20T07:53:04;17.02;;;10.70;;
6651;SDS011;3362;50.892;10.692;2022-08-20T07:55:30;17.40;;;10.85;;
6651;SDS011;3362;50.892;10.692;2022-08-20T07:57:57;20.17;;;10.52;;
6651;SDS011;3362;50.892;10.692;2022-08-20T08:00:25;17.92;;;11.35;;
6651;SDS011;3362;50.892;10.692;2022-08-20T08:02:51;18.63;;;11.60;;
6651;SDS011;3362;50.892;10.692;2022-08-20T08:05:18;17.83;;;10.32;;
6651;SDS011;3362;50.892;10.692;2022-08-20T08:07:44;19.95;;;10.35;;
6651;SDS011;3362;50.892;10.692;2022-08-20T08:10:15;16.38;;;10.30;;
6651;SDS011;3362;50.892;10.692;2022-08-20T08:12:44;17.95;;;9.90;;
6651;SDS011;3362;50.892;10.692;2022-08-20T08:15:13;17.70;;;10.60;;
6651;SDS011;3362;50.892;10.692;2022-08-20T08:17:42;18.35;;;11.30;;
6651;SDS011;3362;50.892;10.692;2022-08-20T08:20:09;15.82;;;10.63;;
6651;SDS011;3362;50.892;10.692;2022-08-20T08:22:37;17.83;;;11.05;;
6651;SDS011;3362;50.892;10.692;2022-08-20T08:25:07;17.60;;;10.38;;
6651;SDS011;3362;50.892;10.692;2022-08-20T08:27:33;18.77;;;10.38;;
6651;SDS011;3362;50.892;10.692;2022-08-20T08:30:00;16.70;;;10.27;;
6651;SDS011;3362;50.892;10.692;2022-08-20T08:32:26;23.48;;;11.70;;
6651;SDS011;3362;50.892;10.692;2022-08-20T08:34:55;15.05;;;9.40;;
6651;SDS011;3362;50.892;10.692;2022-08-20T08:37:22;14.93;;;9.50;;
6651;SDS011;3362;50.892;10.692;2022-08-20T08:39:48;13.30;;;9.65;;
6651;SDS011;3362;50.892;10.692;2022-08-20T08:42:16;18.23;;;10.00;;
6651;SDS011;3362;50.892;10.692;2022-08-20T08:44:45;17.85;;;10.18;;
6651;SDS011;3362;50.892;10.692;2022-08-20T08:47:14;17.63;;;10.48;;
6651;SDS011;3362;50.892;10.692;2022-08-20T08:49:42;14.82;;;9.77;;
6651;SDS011;3362;50.892;10.692;2022-08-20T08:52:11;17.08;;;10.35;;
6651;SDS011;3362;50.892;10.692;2022-08-20T08:54:38;14.60;;;10.10;;
6651;SDS011;3362;50.892;10.692;2022-08-20T08:57:06;15.10;;;9.55;;
6651;SDS011;3362;50.892;10.692;2022-08-20T08:59:34;14.90;;;10.15;;
6651;SDS011;3362;50.892;10.692;2022-08-20T09:02:00;16.17;;;9.80;;
6651;SDS011;3362;50.892;10.692;2022-08-20T09:04:28;17.10;;;9.93;;
6651;SDS011;3362;50.892;10.692;2022-08-20T09:06:55;15.45;;;9.95;;
6651;SDS011;3362;50.892;10.692;2022-08-20T09:09:25;15.90;;;9.25;;
6651;SDS011;3362;50.892;10.692;2022-08-20T09:11:53;14.90;;;9.40;;
6651;SDS011;3362;50.892;10.692;2022-08-20T09:14:20;14.43;;;10.35;;
6651;SDS011;3362;50.892;10.692;2022-08-20T09:16:48;16.38;;;9.68;;
6651;SDS011;3362;50.892;10.692;2022-08-20T09:19:15;15.25;;;8.75;;
6651;SDS011;3362;50.892;10.692;2022-08-20T09:21:41;16.38;;;9.70;;
6651;SDS011;3362;50.892;10.692;2022-08-20T09:24:07;13.30;;;9.07;;
6651;SDS011;3362;50.892;10.692;2022-08-20T09:26:35;12.70;;;8.55;;
6651;SDS011;3362;50.892;10.692;2022-08-20T09:29:01;12.38;;;9.05;;
6651;SDS011;3362;50.892;10.692;2022-08-20T09:31:27;17.80;;;10.30;;
6651;SDS011;3362;50.892;10.692;2022-08-20T09:33:53;9.98;;;7.18;;
6651;SDS011;3362;50.892;10.692;2022-08-20T09:36:20;14.65;;;8.35;;
6651;SDS011;3362;50.892;10.692;2022-08-20T09:38:46;13.10;;;8.90;;
6651;SDS011;3362;50.892;10.692;2022-08-20T09:41:12;14.25;;;9.23;;
6651;SDS011;3362;50.892;10.692;2022-08-20T09:43:40;13.13;;;9.20;;
6651;SDS011;3362;50.892;10.692;2022-08-20T09:46:06;14.82;;;9.38;;
6651;SDS011;3362;50.892;10.692;2022-08-20T09:48:32;16.00;;;9.15;;
6651;SDS011;3362;50.892;10.692;2022-08-20T09:50:58;17.25;;;10.15;;
6651;SDS011;3362;50.892;10.692;2022-08-20T09:53:25;14.98;;;9.93;;
6651;SDS011;3362;50.892;10.692;2022-08-20T09:55:52;13.38;;;9.07;;
6651;SDS011;3362;50.892;10.692;2022-08-20T09:58:20;16.20;;;10.18;;
6651;SDS011;3362;50.892;10.692;2022-08-20T10:00:48;12.85;;;9.20;;
6651;SDS011;3362;50.892;10.692;2022-08-20T10:03:15;14.32;;;9.95;;
6651;SDS011;3362;50.892;10.692;2022-08-20T10:05:41;16.80;;;9.70;;
6651;SDS011;3362;50.892;10.692;2022-08-20T10:08:08;14.05;;;10.02;;
6651;SDS011;3362;50.892;10.692;2022-08-20T10:10:35;16.33;;;10.82;;
6651;SDS011;3362;50.892;10.692;2022-08-20T10:13:01;16.63;;;9.95;;
6651;SDS011;3362;50.892;10.692;2022-08-20T10:15:27;21.58;;;11.18;;
6651;SDS011;3362;50.892;10.692;2022-08-20T10:17:55;15.75;;;10.15;;
6651;SDS011;3362;50.892;10.692;2022-08-20T10:20:22;16.27;;;10.38;;
6651;SDS011;3362;50.892;10.692;2022-08-20T10:22:48;15.60;;;10.13;;
6651;SDS011;3362;50.892;10.692;2022-08-20T10:25:15;17.27;;;10.65;;
6651;SDS011;3362;50.892;10.692;2022-08-20T10:27:41;17.35;;;11.43;;
6651;SDS011;3362;50.892;10.692;2022-08-20T10:30:08;14.88;;;10.35;;
6651;SDS011;3362;50.892;10.692;2022-08-20T10:32:34;17.05;;;11.30;;
6651;SDS011;3362;50.892;10.692;2022-08-20T10:35:02;16.17;;;9.70;;
6651;SDS011;3362;50.892;10.692;2022-08-20T10:37:29;18.83;;;11.65;;
6651;SDS011;3362;50.892;10.692;2022-08-20T10:39:55;18.20;;;10.60;;
6651;SDS011;3362;50.892;10.692;2022-08-20T10:42:21;15.77;;;10.30;;
6651;SDS011;3362;50.892;10.692;2022-08-20T10:44:48;15.60;;;10.82;;
6651;SDS011;3362;50.892;10.692;2022-08-20T10:47:15;14.43;;;10.25;;
6651;SDS011;3362;50.892;10.692;2022-08-20T10:49:42;19.33;;;9.82;;
6651;SDS011;3362;50.892;10.692;2022-08-20T10:52:09;15.25;;;10.52;;
6651;SDS011;3362;50.892;10.692;2022-08-20T10:54:35;18.08;;;9.20;;
6651;SDS011;3362;50.892;10.692;2022-08-20T10:57:05;16.48;;;10.00;;
6651;SDS011;3362;50.892;10.692;2022-08-20T10:59:33;15.48;;;8.30;;
6651;SDS011;3362;50.892;10.692;2022-08-20T11:02:02;12.50;;;9.07;;
6651;SDS011;3362;50.892;10.692;2022-08-20T11:04:28;13.20;;;8.82;;
6651;SDS011;3362;50.892;10.692;2022-08-20T11:06:55;11.80;;;8.02;;
6651;SDS011;3362;50.892;10.692;2022-08-20T11:09:22;13.88;;;8.90;;
6651;SDS011;3362;50.892;10.692;2022-08-20T11:11:48;16.77;;;9.85;;
6651;SDS011;3362;50.892;10.692;2022-08-20T11:14:15;14.93;;;8.82;;
6651;SDS011;3362;50.892;10.692;2022-08-20T11:16:41;17.67;;;9.20;;
6651;SDS011;3362;50.892;10.692;2022-08-20T11:19:07;12.77;;;8.68;;
6651;SDS011;3362;50.892;10.692;2022-08-20T11:21:33;11.07;;;8.82;;
6651;SDS011;3362;50.892;10.692;2022-08-20T11:23:59;17.30;;;9.18;;
6651;SDS011;3362;50.892;10.692;2022-08-20T11:26:27;13.15;;;9.35;;
6651;SDS011;3362;50.892;10.692;2022-08-20T11:28:53;11.77;;;8.60;;
6651;SDS011;3362;50.892;10.692;2022-08-20T11:31:19;11.70;;;8.73;;
6651;SDS011;3362;50.892;10.692;2022-08-20T11:33:45;14.32;;;8.60;;
6651;SDS011;3362;50.892;10.692;2022-08-20T11:36:12;15.25;;;8.15;;
6651;SDS011;3362;50.892;10.692;2022-08-20T11:38:38;12.57;;;8.20;;
6651;SDS011;3362;50.892;10.692;2022-08-20T11:41:04;15.27;;;8.43;;
6651;SDS011;3362;50.892;10.692;2022-08-20T11:43:32;10.70;;;8.20;;
6651;SDS011;3362;50.892;10.692;2022-08-20T11:45:58;10.77;;;7.43;;
6651;SDS011;3362;50.892;10.692;2022-08-20T11:48:24;13.40;;;7.28;;
6651;SDS011;3362;50.892;10.692;2022-08-20T11:50:50;9.43;;;7.47;;
6651;SDS011;3362;50.892;10.692;2022-08-20T11:53:17;12.32;;;7.43;;
6651;SDS011;3362;50.892;10.692;2022-08-20T11:55:43;10.20;;;7.47;;
6651;SDS011;3362;50.892;10.692;2022-08-20T11:58:09;9.85;;;7.28;;
6651;SDS011;3362;50.892;10.692;2022-08-20T12:00:37;10.70;;;7.50;;
6651;SDS011;3362;50.892;10.692;2022-08-20T12:03:04;8.02;;;5.78;;
6651;SDS011;3362;50.892;10.692;2022-08-20T12:05:30;10.60;;;6.28;;
6651;SDS011;3362;50.892;10.692;2022-08-20T12:07:56;7.18;;;5.20;;
6651;SDS011;3362;50.892;10.692;2022-08-20T12:10:24;6.20;;;5.13;;
6651;SDS011;3362;50.892;10.692;2022-08-20T12:12:52;7.07;;;5.00;;
6651;SDS011;3362;50.892;10.692;2022-08-20T12:15:18;7.97;;;4.60;;
6651;SDS011;3362;50.892;10.692;2022-08-20T12:17:45;5.28;;;4.10;;
6651;SDS011;3362;50.892;10.692;2022-08-20T12:20:12;5.53;;;4.07;;
6651;SDS011;3362;50.892;10.692;2022-08-20T12:22:39;3.38;;;3.08;;
6651;SDS011;3362;50.892;10.692;2022-08-20T12:25:05;7.65;;;3.78;;
6651;SDS011;3362;50.892;10.692;2022-08-20T12:27:32;4.30;;;3.37;;
6651;SDS011;3362;50.892;10.692;2022-08-20T12:30:00;5.47;;;3.28;;
6651;SDS011;3362;50.892;10.692;2022-08-20T12:32:28;3.25;;;2.92;;
6651;SDS011;3362;50.892;10.692;2022-08-20T12:34:56;3.38;;;2.75;;
6651;SDS011;3362;50.892;10.692;2022-08-20T12:37:23;3.78;;;3.10;;
6651;SDS011;3362;50.892;10.692;2022-08-20T12:39:51;5.18;;;3.70;;
6651;SDS011;3362;50.892;10.692;2022-08-20T12:42:18;4.13;;;3.20;;
6651;SDS011;3362;50.892;10.692;2022-08-20T12:44:44;4.97;;;3.45;;
6651;SDS011;3362;50.892;10.692;2022-08-20T12:47:11;4.22;;;3.50;;
6651;SDS011;3362;50.892;10.692;2022-08-20T12:49:39;2.97;;;2.67;;
6651;SDS011;3362;50.892;10.692;2022-08-20T12:52:07;4.93;;;2.67;;
6651;SDS011;3362;50.892;10.692;2022-08-20T12:54:34;2.67;;;2.33;;
6651;SDS011;3362;50.892;10.692;2022-08-20T12:57:00;2.22;;;1.92;;
6651;SDS011;3362;50.892;10.692;2022-08-20T12:59:27;2.28;;;2.08;;
6651;SDS011;3362;50.892;10.692;2022-08-20T13:01:53;2.50;;;2.10;;
6651;SDS011;3362;50.892;10.692;2022-08-20T13:04:19;3.03;;;2.40;;
6651;SDS011;3362;50.892;10.692;2022-08-20T13:06:45;4.80;;;2.70;;
6651;SDS011;3362;50.892;10.692;2022-08-20T13:09:13;2.67;;;1.60;;
6651;SDS011;3362;50.892;10.692;2022-08-20T13:11:40;2.40;;;2.20;;
6651;SDS011;3362;50.892;10.692;2022-08-20T13:14:06;2.75;;;2.00;;
6651;SDS011;3362;50.892;10.692;2022-08-20T13:16:32;2.03;;;1.50;;
6651;SDS011;3362;50.892;10.692;2022-08-20T13:18:59;1.63;;;1.40;;
6651;SDS011;3362;50.892;10.692;2022-08-20T13:21:25;1.98;;;1.70;;
6651;SDS011;3362;50.892;10.692;2022-08-20T13:23:51;3.97;;;2.97;;
6651;SDS011;3362;50.892;10.692;2022-08-20T13:26:19;7.63;;;3.17;;
6651;SDS011;3362;50.892;10.692;2022-08-20T13:28:45;5.53;;;3.75;;
6651;SDS011;3362;50.892;10.692;2022-08-20T13:31:11;4.80;;;3.97;;
6651;SDS011;3362;50.892;10.692;2022-08-20T13:33:37;5.63;;;3.85;;
6651;SDS011;3362;50.892;10.692;2022-08-20T13:36:04;8.45;;;3.72;;
6651;SDS011;3362;50.892;10.692;2022-08-20T13:38:30;5.60;;;3.60;;
6651;SDS011;3362;50.892;10.692;2022-08-20T13:40:56;4.00;;;3.50;;
6651;SDS011;3362;50.892;10.692;2022-08-20T13:43:24;4.88;;;3.53;;
6651;SDS011;3362;50.892;10.692;2022-08-20T13:45:50;4.93;;;3.63;;
6651;SDS011;3362;50.892;10.692;2022-08-20T13:48:16;5.22;;;3.45;;
6651;SDS011;3362;50.892;10.692;2022-08-20T13:50:43;7.05;;;3.67;;
6651;SDS011;3362;50.892;10.692;2022-08-20T13:53:09;3.15;;;2.67;;
6651;SDS011;3362;50.892;10.692;2022-08-20T13:55:35;3.10;;;2.75;;
6651;SDS011;3362;50.892;10.692;2022-08-20T13:58:03;2.83;;;2.55;;
6651;SDS011;3362;50.892;10.692;2022-08-20T14:00:31;4.18;;;2.78;;
6651;SDS011;3362;50.892;10.692;2022-08-20T14:02:58;3.80;;;2.63;;
6651;SDS011;3362;50.892;10.692;2022-08-20T14:05:24;2.65;;;2.45;;
6651;SDS011;3362;50.892;10.692;2022-08-20T14:07:50;8.73;;;5.10;;
6651;SDS011;3362;50.892;10.692;2022-08-20T14:10:18;7.60;;;5.25;;
6651;SDS011;3362;50.892;10.692;2022-08-20T14:12:45;7.63;;;5.35;;
6651;SDS011;3362;50.892;10.692;2022-08-20T14:15:12;6.57;;;4.65;;
6651;SDS011;3362;50.892;10.692;2022-08-20T14:17:40;6.90;;;5.00;;
6651;SDS011;3362;50.892;10.692;2022-08-20T14:20:08;9.93;;;6.50;;
6651;SDS011;3362;50.892;10.692;2022-08-20T14:22:34;6.82;;;4.53;;
6651;SDS011;3362;50.892;10.692;2022-08-20T14:25:01;10.50;;;4.90;;
6651;SDS011;3362;50.892;10.692;2022-08-20T14:27:28;6.18;;;4.78;;
6651;SDS011;3362;50.892;10.692;2022-08-20T14:29:55;6.72;;;4.10;;
6651;SDS011;3362;50.892;10.692;2022-08-20T14:32:21;8.38;;;4.50;;
6651;SDS011;3362;50.892;10.692;2022-08-20T14:34:48;11.88;;;4.95;;
6651;SDS011;3362;50.892;10.692;2022-08-20T14:37:15;6.95;;;4.20;;
6651;SDS011;3362;50.892;10.692;2022-08-20T14:39:42;7.57;;;4.43;;
6651;SDS011;3362;50.892;10.692;2022-08-20T14:42:09;8.45;;;5.00;;
6651;SDS011;3362;50.892;10.692;2022-08-20T14:44:35;8.07;;;5.30;;
6651;SDS011;3362;50.892;10.692;2022-08-20T14:47:08;6.45;;;5.10;;
6651;SDS011;3362;50.892;10.692;2022-08-20T14:49:35;11.27;;;6.35;;
6651;SDS011;3362;50.892;10.692;2022-08-20T14:52:02;9.65;;;6.80;;
6651;SDS011;3362;50.892;10.692;2022-08-20T14:54:29;11.98;;;7.05;;